Dobson, NC (27017)

8:37 PM EDT on April 24, 2015 (GMT -0400)
Fisher Park | | Change Station
CLOSE
Current Station
Personal Weather Station
Location: Dobson, NC
Elevation: 1086 ft
Nearby Weather Stations

Elev 1086 ft 36.42 °N, 80.72 °W | Updated 4 minutes ago

Partly Cloudy
Partly Cloudy
58.3 °F
Feels Like 58.3 °F
N
1.0
Wind Variable Wind from West
Gusts 3.0 mph

Today
High -- | Low -- °F
--% Chance of Precip.
Yesterday
High -- | Low -- °F
Precip. -- in
6:38 AM 8:04 PM
Waxing Crescent, 40% visible
Pressure 29.97 in
Visibility -9999.0 miles
Clouds Clear
Dew Point 39 °F
Humidity 48%
Rainfall 0.00 in
Snow Depth Not available.
UV 0.0 out of 12
Pollen 9.20 out of 12
Air Quality Not available.
Flu Activity Sporadic
METAR KMWK 250015Z AUTO 00000KT CLR 17/M04 A2997 RMK AO2 T01731036 PWINO

More Conditions Fewer Conditions

Pressure 29.97 in
Visibility -9999.0 miles
Clouds Clear
Dew Point 39 °F
Humidity 48%
Rainfall 0.00 in
Snow Depth Not available.
UV 0.0 out of 12
Pollen 9.20 out of 12
Air Quality Not available.
Flu Activity Sporadic
METAR KMWK 250015Z AUTO 00000KT CLR 17/M04 A2997 RMK AO2 T01731036 PWINO

More Conditions Fewer Conditions

10-Day Weather Forecast

Almanac

Astronomy

Apr. 24, 2015 Rise Set
Actual Time
Civil Twilight
Nautical Twilight
Astronomical Twilight
Moon
Length of Visible Light
Length of Day
Tomorrow will be .
, % of the Moon is Illuminated

Today's Extremes

State Highs State Lows

Community

WunderPhotos

Upload Photos

1,816,516 photos uploaded!

WunderBlogs® & News

Nearby

Air Quality

  Air Quality AQ Index Pollutant
Not available.

Snow Depth

Station Depth Elevation

Earthquake Activity

City Distance Mag. Time & Date
Minimum magnitude displayed is 2.5.

Coastal Water Temperatures

Place Temperature

Stations

Nearby Weather Stations

Station Location Temp. Windchill Dew Point Humidity Wind Precip. Elev Updated Type